Time;durP1;ratioP1;P1;durP2;ratioP2;P2;SDS_P1;SDS_P2;PMS_P1;PMS_P2;Temp;Humidity;BMP_temperature;BMP_pressure;BME280_temperature;BME280_humidity;BME280_pressure;Samples;Min_cycle;Max_cycle;Signal;HPM_P1;HPM_P2
2021/06/15 00:02:17;;;;;;;4.53;2.63;;;24.00;44.00;;;;;;6236788;27;82074;-65
2021/06/15 00:05:18;;;;;;;4.82;3.00;;;24.00;44.10;;;;;;6235153;27;80403;-64
2021/06/15 00:08:19;;;;;;;6.22;2.85;;;24.00;44.30;;;;;;6235704;27;81408;-63
2021/06/15 00:11:19;;;;;;;6.13;3.20;;;24.00;44.00;;;;;;6234602;27;80520;-63
2021/06/15 00:14:19;;;;;;;4.60;3.08;;;24.00;44.10;;;;;;6234110;27;80424;-63
2021/06/15 00:17:20;;;;;;;7.95;3.67;;;24.00;44.30;;;;;;6235890;27;80848;-63
2021/06/15 00:20:21;;;;;;;6.78;3.30;;;24.00;44.00;;;;;;6235746;27;81385;-63
2021/06/15 00:23:21;;;;;;;3.67;3.15;;;24.00;44.20;;;;;;6234655;27;82174;-63
2021/06/15 00:26:22;;;;;;;15.55;4.97;;;24.00;43.90;;;;;;6235166;27;80622;-63
2021/06/15 00:29:22;;;;;;;5.75;3.42;;;24.00;44.10;;;;;;6228824;27;80538;-63
2021/06/15 00:32:23;;;;;;;6.18;3.00;;;24.00;43.90;;;;;;6233209;27;81565;-63
2021/06/15 00:35:23;;;;;;;8.05;3.70;;;24.00;44.40;;;;;;6235030;27;80268;-63
2021/06/15 00:38:24;;;;;;;9.10;3.40;;;24.00;44.10;;;;;;6233155;27;80882;-63
2021/06/15 00:41:24;;;;;;;7.65;3.03;;;24.00;44.10;;;;;;6231484;27;80443;-63
2021/06/15 00:44:25;;;;;;;6.80;3.67;;;24.00;44.30;;;;;;6232426;27;82419;-63
2021/06/15 00:47:26;;;;;;;6.07;3.35;;;24.00;44.10;;;;;;6233655;27;83535;-64
2021/06/15 00:50:29;;;;;;;7.43;3.30;;;24.00;44.10;;;;;;6233647;27;80559;-64
2021/06/15 00:53:29;;;;;;;4.60;3.47;;;24.00;44.10;;;;;;6233298;27;83237;-64
2021/06/15 00:56:31;;;;;;;6.00;3.28;;;24.00;44.20;;;;;;6233717;27;82068;-64
2021/06/15 00:59:31;;;;;;;4.75;3.35;;;24.00;44.40;;;;;;6232505;27;82978;-64
2021/06/15 01:02:32;;;;;;;5.95;3.50;;;24.00;44.20;;;;;;6233179;27;81793;-64
2021/06/15 01:05:33;;;;;;;6.47;3.75;;;24.00;43.80;;;;;;6231331;27;82564;-65
2021/06/15 01:08:33;;;;;;;5.82;3.30;;;24.00;44.00;;;;;;6234911;27;80419;-63
2021/06/15 01:11:34;;;;;;;5.07;3.50;;;24.00;44.00;;;;;;6241954;27;80983;-63
2021/06/15 01:14:35;;;;;;;8.85;3.58;;;24.00;44.20;;;;;;6213931;27;83447;-63
2021/06/15 01:17:36;;;;;;;6.45;3.30;;;23.90;43.80;;;;;;6235036;27;80318;-63
2021/06/15 01:20:37;;;;;;;4.78;3.45;;;23.90;43.80;;;;;;6231325;27;81857;-63
2021/06/15 01:23:38;;;;;;;7.20;3.17;;;23.90;43.80;;;;;;6231265;27;81681;-63
2021/06/15 01:26:38;;;;;;;5.40;3.38;;;24.00;43.80;;;;;;6231320;27;80517;-63
2021/06/15 01:29:39;;;;;;;6.43;3.80;;;23.90;43.80;;;;;;6229984;27;83312;-63
2021/06/15 01:32:40;;;;;;;6.00;3.22;;;23.90;44.20;;;;;;6231454;27;83656;-63
2021/06/15 01:35:41;;;;;;;5.10;3.15;;;23.90;44.00;;;;;;6230690;27;82078;-63
2021/06/15 01:38:43;;;;;;;7.22;4.07;;;24.00;44.70;;;;;;6229341;27;82050;-62
2021/06/15 01:41:45;;;;;;;5.10;3.70;;;23.90;43.80;;;;;;6229781;27;84975;-63
2021/06/15 01:44:46;;;;;;;5.20;3.58;;;24.00;44.20;;;;;;6231831;27;80347;-64
2021/06/15 01:47:47;;;;;;;4.93;3.50;;;23.90;44.10;;;;;;6231512;27;82223;-63
2021/06/15 01:50:48;;;;;;;5.68;3.38;;;23.90;44.00;;;;;;6229836;27;82058;-63
2021/06/15 01:53:51;;;;;;;6.43;3.72;;;23.90;44.10;;;;;;6233026;27;81358;-63
2021/06/15 01:56:59;;;;;;;6.75;3.58;;;23.90;44.30;;;;;;6229298;27;80492;-63
2021/06/15 02:00:00;;;;;;;6.10;3.50;;;23.90;44.20;;;;;;6237893;27;81128;-63
2021/06/15 02:03:00;;;;;;;6.22;3.85;;;23.90;44.10;;;;;;6230580;27;82662;-64
2021/06/15 02:06:04;;;;;;;5.95;3.20;;;23.90;44.20;;;;;;6227199;28;80349;-64
2021/06/15 02:09:05;;;;;;;5.43;3.35;;;23.90;44.10;;;;;;6230962;28;87850;-64
2021/06/15 02:12:28;;;;;;;5.47;3.38;;;23.90;44.20;;;;;;6228940;27;81655;-64
2021/06/15 02:16:07;;;;;;;6.15;4.00;;;23.90;44.00;;;;;;6231096;27;80962;-65
2021/06/15 02:19:26;;;;;;;5.85;3.50;;;23.90;43.90;;;;;;6233208;27;80282;-64
2021/06/15 02:22:29;;;;;;;8.05;3.95;;;23.90;44.20;;;;;;6232232;27;83492;-63
2021/06/15 02:25:29;;;;;;;7.38;3.60;;;24.00;44.10;;;;;;6232168;27;81761;-63
2021/06/15 02:28:31;;;;;;;5.15;3.60;;;23.90;44.20;;;;;;6230067;28;83166;-63
2021/06/15 02:31:32;;;;;;;5.55;3.47;;;23.90;44.00;;;;;;6231610;27;80382;-64
2021/06/15 02:34:39;;;;;;;6.22;3.75;;;23.90;44.20;;;;;;6231695;28;80489;-63
2021/06/15 02:37:40;;;;;;;8.02;4.28;;;23.90;44.00;;;;;;6231888;27;80492;-63
2021/06/15 02:40:40;;;;;;;8.10;3.20;;;23.90;44.00;;;;;;6231041;27;81490;-63
2021/06/15 02:43:41;;;;;;;7.00;3.67;;;23.90;44.10;;;;;;6228912;27;83250;-63
2021/06/15 02:46:43;;;;;;;5.70;3.72;;;23.90;43.60;;;;;;6229558;27;82935;-63
2021/06/15 02:49:44;;;;;;;6.10;4.10;;;23.90;43.90;;;;;;6231917;27;80989;-63
2021/06/15 02:52:47;;;;;;;8.05;4.72;;;23.90;44.10;;;;;;6230563;27;87824;-64
2021/06/15 02:55:51;;;;;;;5.78;3.85;;;23.90;43.80;;;;;;6231434;27;80787;-63
2021/06/15 02:58:52;;;;;;;7.68;3.53;;;23.90;44.20;;;;;;6215597;27;83030;-65
2021/06/15 03:01:54;;;;;;;9.30;4.32;;;23.90;44.00;;;;;;6234677;27;82902;-64
2021/06/15 03:05:02;;;;;;;5.50;3.70;;;23.90;43.80;;;;;;6237296;27;82189;-64
2021/06/15 03:08:05;;;;;;;10.88;3.47;;;23.90;43.90;;;;;;6239915;27;83156;-65
2021/06/15 03:11:07;;;;;;;6.72;3.95;;;23.90;44.10;;;;;;6235574;27;82752;-64
2021/06/15 03:14:07;;;;;;;6.88;3.83;;;23.90;44.10;;;;;;6230695;27;81393;-64
2021/06/15 03:17:08;;;;;;;7.20;4.18;;;23.90;44.50;;;;;;6232394;27;82610;-65
2021/06/15 03:20:09;;;;;;;4.60;3.80;;;23.90;44.10;;;;;;6235156;27;80276;-64
2021/06/15 03:23:17;;;;;;;6.30;3.83;;;23.90;44.00;;;;;;6225707;27;83243;-64
2021/06/15 03:26:19;;;;;;;8.75;4.05;;;23.90;44.00;;;;;;6233125;27;82996;-64
2021/06/15 03:29:19;;;;;;;6.82;3.28;;;23.90;44.60;;;;;;6240448;27;80541;-64
2021/06/15 03:32:22;;;;;;;5.28;3.97;;;23.90;44.10;;;;;;6232471;27;82868;-64
2021/06/15 03:35:23;;;;;;;5.10;3.38;;;23.90;44.30;;;;;;6230775;27;82457;-64
2021/06/15 03:38:24;;;;;;;6.28;3.60;;;23.90;44.20;;;;;;6232544;27;82153;-65
2021/06/15 03:41:24;;;;;;;7.20;3.65;;;23.90;44.30;;;;;;6233335;27;83047;-64
2021/06/15 03:44:25;;;;;;;5.72;3.30;;;23.90;44.20;;;;;;6231968;27;82961;-63
2021/06/15 03:47:25;;;;;;;10.00;3.72;;;23.90;43.90;;;;;;6234801;27;80362;-64
2021/06/15 03:50:26;;;;;;;5.93;4.03;;;23.90;44.20;;;;;;6236963;27;80398;-64
2021/06/15 03:53:28;;;;;;;5.65;3.35;;;23.90;44.00;;;;;;6230960;27;81560;-64
2021/06/15 03:56:29;;;;;;;5.10;3.20;;;23.90;44.10;;;;;;6232976;27;81468;-64
2021/06/15 03:59:32;;;;;;;4.82;3.55;;;23.90;44.40;;;;;;6246168;27;84204;-63
2021/06/15 04:02:33;;;;;;;5.78;3.33;;;23.90;44.40;;;;;;6232923;27;80744;-65
2021/06/15 04:05:33;;;;;;;5.82;3.75;;;23.90;44.40;;;;;;6238762;27;80756;-64
2021/06/15 04:08:34;;;;;;;5.70;4.25;;;23.90;44.30;;;;;;6236363;27;80284;-64
2021/06/15 04:11:35;;;;;;;6.60;3.65;;;23.90;44.30;;;;;;6236854;27;81815;-65
2021/06/15 04:14:35;;;;;;;5.57;3.30;;;23.90;44.10;;;;;;6236956;27;80354;-64
2021/06/15 04:17:36;;;;;;;7.97;4.10;;;23.90;43.70;;;;;;6233953;27;80367;-65
2021/06/15 04:20:36;;;;;;;4.97;3.38;;;23.90;44.00;;;;;;6242046;27;80623;-66
2021/06/15 04:23:37;;;;;;;6.00;3.53;;;23.90;43.80;;;;;;6234496;27;80426;-64
2021/06/15 04:26:37;;;;;;;6.05;3.53;;;23.90;44.00;;;;;;6235216;27;80510;-64
2021/06/15 04:29:38;;;;;;;8.43;3.95;;;24.00;43.90;;;;;;6232139;27;80311;-65
2021/06/15 04:32:38;;;;;;;6.25;4.10;;;24.00;44.50;;;;;;6234727;27;80755;-65
2021/06/15 04:35:40;;;;;;;5.72;3.75;;;24.00;43.80;;;;;;6238174;27;80368;-65
2021/06/15 04:38:41;;;;;;;5.55;3.47;;;24.00;43.80;;;;;;6233725;27;81830;-62
2021/06/15 04:41:41;;;;;;;7.65;4.20;;;24.00;44.20;;;;;;6233513;27;80458;-63
2021/06/15 04:44:42;;;;;;;6.60;3.83;;;24.00;44.10;;;;;;6232997;27;81577;-65
2021/06/15 04:47:42;;;;;;;6.93;3.80;;;24.00;44.60;;;;;;6230888;27;80391;-65
2021/06/15 04:50:43;;;;;;;7.22;4.03;;;24.00;45.00;;;;;;6230636;27;81037;-66
2021/06/15 04:53:43;;;;;;;7.88;4.25;;;24.00;44.90;;;;;;6231059;27;80344;-65
2021/06/15 04:56:44;;;;;;;8.38;3.65;;;24.00;44.80;;;;;;6233634;27;80242;-65
2021/06/15 04:59:45;;;;;;;15.20;4.07;;;24.00;45.20;;;;;;6231670;27;81093;-65
2021/06/15 05:02:45;;;;;;;8.73;3.78;;;24.00;46.30;;;;;;6229401;27;81775;-68
2021/06/15 05:05:46;;;;;;;9.68;3.88;;;24.00;45.70;;;;;;6230660;27;80852;-67
2021/06/15 05:08:46;;;;;;;7.80;4.38;;;24.00;46.00;;;;;;6233333;27;80705;-66
2021/06/15 05:11:47;;;;;;;8.88;5.00;;;24.10;46.40;;;;;;6235119;27;80818;-66
2021/06/15 05:14:48;;;;;;;9.05;3.85;;;24.10;46.30;;;;;;6240032;27;80707;-66
2021/06/15 05:17:48;;;;;;;10.40;4.65;;;24.00;46.40;;;;;;6233206;27;80333;-66
2021/06/15 05:20:49;;;;;;;15.00;4.03;;;24.10;47.00;;;;;;6231572;27;81394;-64
2021/06/15 05:23:49;;;;;;;5.88;3.67;;;24.10;46.60;;;;;;6229287;27;83303;-66
2021/06/15 05:26:50;;;;;;;10.68;4.05;;;24.10;46.40;;;;;;6245839;27;86769;-65
2021/06/15 05:29:50;;;;;;;7.47;3.85;;;24.10;46.40;;;;;;6235437;27;81285;-66
2021/06/15 05:32:51;;;;;;;10.30;4.50;;;24.10;47.00;;;;;;6232966;27;80707;-66
2021/06/15 05:35:51;;;;;;;9.65;4.70;;;24.10;47.20;;;;;;6231964;27;80696;-66
2021/06/15 05:38:52;;;;;;;7.53;4.07;;;24.20;47.40;;;;;;6231701;27;80911;-65
2021/06/15 05:41:52;;;;;;;10.48;4.53;;;24.20;47.60;;;;;;6239682;27;80536;-65
2021/06/15 05:44:53;;;;;;;12.73;4.10;;;24.10;47.20;;;;;;6231880;27;81451;-63
2021/06/15 05:47:53;;;;;;;7.05;4.10;;;24.20;47.00;;;;;;6235379;28;83048;-64
2021/06/15 05:50:54;;;;;;;8.85;3.67;;;24.20;46.70;;;;;;6246634;27;80571;-67
2021/06/15 05:53:55;;;;;;;10.38;4.70;;;24.20;46.90;;;;;;6242824;27;80584;-65
2021/06/15 05:56:55;;;;;;;12.18;4.60;;;24.20;47.80;;;;;;6232377;27;82160;-66
2021/06/15 05:59:56;;;;;;;15.70;4.38;;;24.20;46.90;;;;;;6231801;27;80799;-58
2021/06/15 06:02:56;;;;;;;7.25;3.55;;;24.20;46.00;;;;;;6232340;27;80523;-66
2021/06/15 06:09:16;;;;;;;10.43;4.15;;;24.10;45.90;;;;;;6234380;27;81088;-65
2021/06/15 06:12:17;;;;;;;10.40;4.07;;;24.10;46.50;;;;;;6233071;27;81006;-64
2021/06/15 06:15:17;;;;;;;10.73;4.40;;;24.20;46.30;;;;;;6233738;27;80491;-65
2021/06/15 06:18:18;;;;;;;9.07;4.00;;;24.10;46.50;;;;;;6234001;27;82625;-66
2021/06/15 06:21:18;;;;;;;17.48;5.13;;;24.10;46.30;;;;;;6226128;27;83336;-65
2021/06/15 06:24:19;;;;;;;11.30;4.20;;;24.10;45.40;;;;;;6234232;27;80321;-65
2021/06/15 06:27:19;;;;;;;8.18;4.30;;;24.10;45.90;;;;;;6230484;27;80390;-66
2021/06/15 06:30:20;;;;;;;9.10;4.88;;;24.10;45.60;;;;;;6231842;27;80759;-66
2021/06/15 06:33:21;;;;;;;6.93;4.30;;;24.10;45.90;;;;;;6227405;27;80451;-66
2021/06/15 06:36:22;;;;;;;13.93;5.03;;;24.10;46.00;;;;;;6235107;27;80719;-64
2021/06/15 06:39:22;;;;;;;20.60;5.22;;;24.10;46.10;;;;;;6237619;27;80861;-65
2021/06/15 06:42:23;;;;;;;11.52;5.00;;;24.10;46.10;;;;;;6241323;27;80722;-65
2021/06/15 06:45:23;;;;;;;11.32;4.82;;;24.10;45.80;;;;;;6236954;27;80647;-65
2021/06/15 06:48:24;;;;;;;9.65;5.18;;;24.10;46.10;;;;;;6237154;27;80291;-65
2021/06/15 06:51:25;;;;;;;13.38;5.75;;;24.10;45.70;;;;;;6234629;27;81785;-65
2021/06/15 06:54:25;;;;;;;8.77;4.82;;;24.10;45.90;;;;;;6239654;27;80613;-64
2021/06/15 06:57:26;;;;;;;9.57;4.88;;;24.10;45.90;;;;;;6240346;27;81884;-64
2021/06/15 07:00:26;;;;;;;13.38;5.30;;;24.10;45.20;;;;;;6230885;28;82012;-66
2021/06/15 07:03:27;;;;;;;10.23;4.88;;;24.10;45.50;;;;;;6237622;27;81506;-65
2021/06/15 07:06:27;;;;;;;9.75;4.50;;;24.10;45.60;;;;;;6234991;28;80669;-66
2021/06/15 07:09:28;;;;;;;9.98;5.15;;;24.10;45.20;;;;;;6237087;27;80847;-65
2021/06/15 07:12:28;;;;;;;10.88;5.05;;;24.10;45.10;;;;;;6237268;27;80651;-65
2021/06/15 07:15:29;;;;;;;9.98;4.88;;;24.10;45.30;;;;;;6231506;27;81352;-67
2021/06/15 07:18:31;;;;;;;9.90;5.07;;;24.10;45.10;;;;;;6233263;27;82269;-65
2021/06/15 07:21:31;;;;;;;9.52;4.75;;;24.10;45.40;;;;;;6234702;27;80637;-64
2021/06/15 07:24:32;;;;;;;8.43;4.97;;;24.10;45.10;;;;;;6240407;27;80846;-63
2021/06/15 07:27:32;;;;;;;7.13;4.45;;;24.10;45.00;;;;;;6237801;27;80615;-65
2021/06/15 07:30:33;;;;;;;9.32;5.32;;;24.10;45.10;;;;;;6232979;28;80804;-64
2021/06/15 07:33:33;;;;;;;7.65;4.43;;;24.10;45.10;;;;;;6235792;27;80425;-66
2021/06/15 07:36:34;;;;;;;12.75;5.35;;;24.10;45.20;;;;;;6230517;27;80359;-67
2021/06/15 07:39:34;;;;;;;8.63;4.50;;;24.10;45.00;;;;;;6232598;27;80700;-64
2021/06/15 07:42:35;;;;;;;8.35;4.28;;;24.10;44.90;;;;;;6226784;27;83019;-66
2021/06/15 07:45:36;;;;;;;10.13;4.45;;;24.10;44.60;;;;;;6229183;27;80866;-66
2021/06/15 07:48:36;;;;;;;10.23;4.13;;;24.10;43.80;;;;;;6233407;27;80493;-66
2021/06/15 07:51:37;;;;;;;8.35;4.43;;;24.10;43.60;;;;;;6213356;27;82284;-67
2021/06/15 07:54:38;;;;;;;7.03;4.03;;;24.10;43.50;;;;;;6230059;27;80914;-65
2021/06/15 07:57:38;;;;;;;11.80;3.92;;;24.10;43.80;;;;;;6230059;28;81962;-64
2021/06/15 08:00:39;;;;;;;6.18;3.80;;;24.20;43.20;;;;;;6230692;27;80517;-64
2021/06/15 08:03:39;;;;;;;12.65;4.20;;;24.20;43.40;;;;;;6225534;27;81044;-66
2021/06/15 08:06:40;;;;;;;17.10;4.38;;;24.10;43.10;;;;;;6227328;27;82899;-65
2021/06/15 08:09:40;;;;;;;7.45;3.03;;;24.20;42.70;;;;;;6228372;27;80752;-66
2021/06/15 08:12:41;;;;;;;8.73;4.20;;;24.10;43.00;;;;;;6228042;27;80472;-64
2021/06/15 08:15:42;;;;;;;7.53;2.40;;;24.10;42.60;;;;;;6228490;27;81230;-65
2021/06/15 08:18:42;;;;;;;4.80;2.67;;;24.10;42.20;;;;;;6227762;27;82255;-65
2021/06/15 08:21:43;;;;;;;4.22;2.30;;;24.10;42.10;;;;;;6229065;27;80532;-65
2021/06/15 08:24:43;;;;;;;4.63;2.38;;;24.10;41.90;;;;;;6229717;27;80686;-65
2021/06/15 08:27:44;;;;;;;7.65;2.60;;;24.10;41.70;;;;;;6231136;27;81414;-65
2021/06/15 08:30:44;;;;;;;3.38;2.20;;;24.10;41.30;;;;;;6227177;27;80228;-66
2021/06/15 08:33:45;;;;;;;4.10;2.58;;;24.10;40.80;;;;;;6233219;27;80756;-66
2021/06/15 08:36:45;;;;;;;5.00;2.28;;;24.10;39.90;;;;;;6232819;27;83039;-65
2021/06/15 08:39:46;;;;;;;5.65;2.55;;;24.10;39.80;;;;;;6226193;27;80657;-65
2021/06/15 08:42:46;;;;;;;6.10;2.42;;;24.10;40.00;;;;;;6231277;27;80881;-65
2021/06/15 08:45:47;;;;;;;4.97;2.20;;;24.10;40.30;;;;;;6232573;27;80298;-65
2021/06/15 08:48:47;;;;;;;2.90;2.38;;;24.20;41.20;;;;;;6230994;27;81121;-66
2021/06/15 08:51:48;;;;;;;5.85;2.33;;;24.20;40.50;;;;;;6243666;27;80413;-65
2021/06/15 08:54:48;;;;;;;6.65;2.67;;;24.20;40.70;;;;;;6228589;27;80572;-65
2021/06/15 08:57:49;;;;;;;5.45;2.50;;;24.30;40.90;;;;;;6222836;27;80808;-65
2021/06/15 09:00:50;;;;;;;7.45;2.50;;;24.20;40.60;;;;;;6229626;27;81630;-65
2021/06/15 09:03:51;;;;;;;6.20;2.63;;;24.30;41.00;;;;;;6223773;27;82944;-66
2021/06/15 09:06:51;;;;;;;4.32;2.72;;;24.30;41.30;;;;;;6229278;27;81813;-66
2021/06/15 09:09:52;;;;;;;7.25;2.33;;;24.30;42.00;;;;;;6225874;27;81581;-66
2021/06/15 09:12:52;;;;;;;4.05;2.53;;;24.30;42.10;;;;;;6229820;27;81533;-65
2021/06/15 09:15:53;;;;;;;6.18;2.65;;;24.30;42.20;;;;;;6232518;27;80895;-67
2021/06/15 09:18:53;;;;;;;5.53;2.40;;;24.20;40.90;;;;;;6230076;27;80180;-65
2021/06/15 09:21:57;;;;;;;5.43;2.50;;;24.20;43.10;;;;;;6227393;27;80701;-66
2021/06/15 09:24:58;;;;;;;7.53;2.63;;;24.30;44.20;;;;;;6224345;27;82834;-66
2021/06/15 09:28:00;;;;;;;3.53;2.10;;;24.30;42.00;;;;;;6232328;27;80564;-67
2021/06/15 09:31:01;;;;;;;8.93;2.63;;;24.30;42.00;;;;;;6229600;27;80415;-66
2021/06/15 09:34:01;;;;;;;4.03;2.35;;;24.30;40.90;;;;;;6226764;27;80687;-66
2021/06/15 09:37:02;;;;;;;4.95;2.88;;;24.30;39.60;;;;;;6228105;27;80409;-66
2021/06/15 09:40:02;;;;;;;5.45;2.80;;;24.30;40.10;;;;;;6223943;27;80701;-66
2021/06/15 09:43:03;;;;;;;4.50;2.40;;;24.30;39.60;;;;;;6228822;27;80343;-66
2021/06/15 09:46:03;;;;;;;4.85;2.40;;;24.30;39.70;;;;;;6229592;27;80398;-66
2021/06/15 09:49:04;;;;;;;6.28;2.40;;;24.30;39.70;;;;;;6223848;27;81564;-66
2021/06/15 09:52:04;;;;;;;6.63;2.75;;;24.30;39.20;;;;;;6228668;27;81384;-67
2021/06/15 09:55:05;;;;;;;4.70;2.55;;;24.30;38.50;;;;;;6229570;27;86666;-66
2021/06/15 09:58:06;;;;;;;4.05;2.00;;;24.30;39.50;;;;;;6228971;27;80616;-67
2021/06/15 10:01:06;;;;;;;5.32;2.38;;;24.40;39.10;;;;;;6230423;27;81102;-66
2021/06/15 10:04:06;;;;;;;9.10;2.92;;;24.40;39.20;;;;;;6229490;27;80636;-66
2021/06/15 10:07:07;;;;;;;7.03;3.10;;;24.40;39.30;;;;;;6227921;27;83233;-67
2021/06/15 10:10:07;;;;;;;7.05;2.70;;;24.40;39.20;;;;;;6226606;27;83178;-66
2021/06/15 10:13:08;;;;;;;5.38;3.42;;;24.40;39.80;;;;;;6230847;27;81161;-66
2021/06/15 10:16:08;;;;;;;9.18;2.88;;;24.40;39.40;;;;;;6226157;27;80376;-65
2021/06/15 10:19:10;;;;;;;8.50;2.92;;;24.40;39.00;;;;;;6220619;27;80614;-65
2021/06/15 10:22:11;;;;;;;9.55;2.65;;;24.40;38.70;;;;;;6222827;27;81371;-64
2021/06/15 10:25:12;;;;;;;3.63;2.47;;;24.40;39.30;;;;;;6223761;27;80789;-65
2021/06/15 10:28:12;;;;;;;4.78;2.30;;;24.40;39.60;;;;;;6226828;27;80501;-65
2021/06/15 10:31:13;;;;;;;5.88;3.28;;;24.40;39.50;;;;;;6228316;27;80783;-64
2021/06/15 10:34:13;;;;;;;4.72;2.78;;;24.40;38.80;;;;;;6227346;28;81842;-66
2021/06/15 10:37:14;;;;;;;7.15;3.10;;;24.40;38.50;;;;;;6224052;27;80406;-65
2021/06/15 10:40:14;;;;;;;5.03;2.72;;;24.40;38.80;;;;;;6224592;27;80174;-65
2021/06/15 10:43:21;;;;;;;5.65;2.70;;;24.40;39.00;;;;;;6231263;27;80707;-65
2021/06/15 10:46:22;;;;;;;5.82;2.55;;;24.40;39.60;;;;;;6228241;27;83368;-64
2021/06/15 10:49:23;;;;;;;4.28;2.70;;;24.40;39.00;;;;;;6224928;27;80555;-65
2021/06/15 10:52:23;;;;;;;4.03;2.50;;;24.40;38.90;;;;;;6228522;27;80724;-65
2021/06/15 10:55:23;;;;;;;7.18;3.05;;;24.50;39.90;;;;;;6228625;27;82531;-64
2021/06/15 10:58:24;;;;;;;6.30;2.50;;;24.50;39.30;;;;;;6227442;27;80807;-65
2021/06/15 11:01:25;;;;;;;6.38;3.13;;;24.50;40.20;;;;;;6228470;27;81056;-66
2021/06/15 11:04:25;;;;;;;5.68;2.83;;;24.50;39.40;;;;;;6230604;27;82835;-65
2021/06/15 11:07:26;;;;;;;5.90;2.83;;;24.50;39.40;;;;;;6227261;27;82213;-66
2021/06/15 11:10:26;;;;;;;5.60;2.90;;;24.50;39.50;;;;;;6230591;27;81736;-65
2021/06/15 11:13:27;;;;;;;7.03;3.00;;;24.50;38.90;;;;;;6227351;27;80547;-65
2021/06/15 11:16:27;;;;;;;6.10;3.13;;;24.50;39.20;;;;;;6219861;27;81281;-66
2021/06/15 11:19:28;;;;;;;10.65;3.00;;;24.60;39.50;;;;;;6226020;27;80418;-65
2021/06/15 11:22:30;;;;;;;8.88;3.35;;;24.60;39.20;;;;;;6231709;28;82172;-66
2021/06/15 11:25:30;;;;;;;11.70;2.90;;;24.60;39.20;;;;;;6226907;27;81481;-64
2021/06/15 11:28:31;;;;;;;4.78;2.70;;;24.60;39.40;;;;;;6234663;27;80621;-64
2021/06/15 11:31:31;;;;;;;9.35;3.38;;;24.50;39.50;;;;;;6231602;27;80312;-64
2021/06/15 11:34:32;;;;;;;18.58;13.77;;;24.60;39.90;;;;;;6229278;27;81085;-64
2021/06/15 11:37:33;;;;;;;9.60;4.50;;;24.60;39.80;;;;;;6232122;27;83392;-64
2021/06/15 11:40:33;;;;;;;8.50;4.57;;;24.60;38.60;;;;;;6229076;27;82666;-65
2021/06/15 11:43:34;;;;;;;6.82;4.45;;;24.60;39.40;;;;;;6224180;27;81584;-64
2021/06/15 11:46:34;;;;;;;15.02;4.70;;;24.70;38.60;;;;;;6232535;27;81069;-64
2021/06/15 11:49:35;;;;;;;17.73;6.97;;;24.70;38.10;;;;;;6231248;27;81768;-63
2021/06/15 11:52:35;;;;;;;9.68;4.20;;;24.70;37.50;;;;;;6228955;27;80846;-63
2021/06/15 11:55:36;;;;;;;12.60;3.72;;;24.70;37.60;;;;;;6229891;27;80483;-64
2021/06/15 11:58:36;;;;;;;7.10;3.30;;;24.70;37.10;;;;;;6232745;27;80655;-64
2021/06/15 12:01:37;;;;;;;14.98;3.35;;;24.80;37.30;;;;;;6229447;27;81492;-64
2021/06/15 12:04:37;;;;;;;12.77;3.58;;;24.70;38.10;;;;;;6232035;27;80874;-63
2021/06/15 12:07:38;;;;;;;7.05;2.83;;;24.80;38.20;;;;;;6226595;27;80333;-66
2021/06/15 12:10:39;;;;;;;6.10;3.10;;;24.80;38.10;;;;;;6232149;27;81912;-67
2021/06/15 12:13:40;;;;;;;6.05;2.80;;;24.70;38.40;;;;;;6231256;27;81525;-66
2021/06/15 12:16:40;;;;;;;10.82;3.05;;;24.80;37.70;;;;;;6230395;27;84421;-67
2021/06/15 12:19:41;;;;;;;13.68;2.97;;;24.70;37.60;;;;;;6227684;27;80673;-66
2021/06/15 12:22:41;;;;;;;5.65;3.08;;;24.70;38.00;;;;;;6228141;27;81289;-66
2021/06/15 12:25:42;;;;;;;3.58;2.88;;;24.70;37.80;;;;;;6233959;27;80653;-66
2021/06/15 12:28:42;;;;;;;6.18;3.28;;;24.70;38.60;;;;;;6232821;27;81306;-65
2021/06/15 12:31:43;;;;;;;6.60;3.00;;;24.80;39.00;;;;;;6233718;27;83730;-65
2021/06/15 12:34:43;;;;;;;5.97;3.35;;;24.80;38.80;;;;;;6235703;27;81082;-65
2021/06/15 12:37:44;;;;;;;9.82;3.28;;;24.70;38.30;;;;;;6234278;27;80621;-66
2021/06/15 12:40:44;;;;;;;13.60;3.95;;;24.70;38.10;;;;;;6235113;27;80415;-65
2021/06/15 12:43:45;;;;;;;7.40;3.50;;;24.70;37.60;;;;;;6235013;27;80623;-65
2021/06/15 12:46:45;;;;;;;4.80;3.15;;;24.70;37.70;;;;;;6231453;27;86407;-66
2021/06/15 12:49:46;;;;;;;8.00;3.67;;;24.70;37.40;;;;;;6237821;27;80677;-66
2021/06/15 12:52:47;;;;;;;6.57;3.47;;;24.80;38.00;;;;;;6238948;27;82047;-66
2021/06/15 12:55:47;;;;;;;8.88;3.70;;;24.70;38.30;;;;;;6233892;27;81586;-66
2021/06/15 12:58:48;;;;;;;5.60;2.90;;;24.70;38.60;;;;;;6233442;27;80002;-66
2021/06/15 13:01:49;;;;;;;8.32;3.33;;;24.70;39.00;;;;;;6236218;27;80621;-67
2021/06/15 13:04:52;;;;;;;7.18;3.15;;;24.80;38.70;;;;;;6229084;27;81150;-67
2021/06/15 13:07:52;;;;;;;10.27;3.33;;;24.70;38.90;;;;;;6227982;27;81083;-67
2021/06/15 13:10:53;;;;;;;7.57;3.05;;;24.70;39.50;;;;;;6227840;27;81548;-67
2021/06/15 13:13:53;;;;;;;4.70;3.03;;;24.80;39.80;;;;;;6234963;27;81163;-66
2021/06/15 13:16:54;;;;;;;11.88;3.35;;;24.80;40.70;;;;;;6231903;27;81107;-66
2021/06/15 13:19:54;;;;;;;10.00;3.97;;;24.70;40.50;;;;;;6218910;27;83163;-66
2021/06/15 13:22:55;;;;;;;72.65;27.33;;;24.70;40.70;;;;;;6229596;27;80610;-65
2021/06/15 13:25:55;;;;;;;100.93;35.22;;;24.80;41.00;;;;;;6227334;27;89629;-66
2021/06/15 13:28:56;;;;;;;141.65;52.95;;;24.80;40.90;;;;;;6224997;27;83067;-65
2021/06/15 13:31:56;;;;;;;192.02;72.47;;;24.80;40.80;;;;;;6225272;27;83955;-66
2021/06/15 13:34:57;;;;;;;220.82;77.88;;;24.80;40.90;;;;;;6224221;27;84187;-65
2021/06/15 13:37:57;;;;;;;203.57;80.03;;;24.80;41.30;;;;;;6219546;27;84051;-65
2021/06/15 13:40:58;;;;;;;190.73;70.13;;;24.80;41.10;;;;;;6226633;27;83238;-64
2021/06/15 13:43:58;;;;;;;163.98;66.18;;;24.80;41.20;;;;;;6221000;27;83553;-66
2021/06/15 13:46:59;;;;;;;154.35;57.80;;;24.70;41.40;;;;;;6219869;27;84555;-66
2021/06/15 13:49:59;;;;;;;112.30;46.65;;;24.70;41.50;;;;;;6221777;27;83081;-66
2021/06/15 13:53:00;;;;;;;114.07;44.25;;;24.80;41.40;;;;;;6226401;27;85959;-65
2021/06/15 13:56:00;;;;;;;105.82;40.80;;;24.90;41.50;;;;;;6223424;27;84313;-66
2021/06/15 13:59:01;;;;;;;109.15;40.25;;;24.80;41.30;;;;;;6225875;27;82920;-65
2021/06/15 14:02:01;;;;;;;97.93;36.70;;;24.80;41.90;;;;;;6224721;27;83706;-65
2021/06/15 14:05:02;;;;;;;87.15;33.05;;;24.80;42.60;;;;;;6224187;27;83262;-65
2021/06/15 14:08:02;;;;;;;78.13;30.90;;;24.80;42.20;;;;;;6227043;27;83475;-66
2021/06/15 14:11:03;;;;;;;90.32;32.40;;;24.90;42.10;;;;;;6226978;27;83652;-65
2021/06/15 14:14:04;;;;;;;74.18;28.17;;;24.90;42.20;;;;;;6224619;27;83520;-65
2021/06/15 14:17:04;;;;;;;73.95;29.73;;;24.90;42.20;;;;;;6225223;27;85791;-65
2021/06/15 14:20:06;;;;;;;80.32;29.95;;;24.80;42.70;;;;;;6224227;27;84362;-65
2021/06/15 14:23:06;;;;;;;84.88;33.22;;;24.80;43.10;;;;;;6223080;27;83244;-65
2021/06/15 14:26:07;;;;;;;77.20;31.75;;;24.80;42.60;;;;;;6222479;27;84058;-63
2021/06/15 14:29:07;;;;;;;76.07;33.33;;;24.80;42.60;;;;;;6232434;27;83367;-65
2021/06/15 14:32:08;;;;;;;82.32;32.53;;;24.80;43.00;;;;;;6236898;27;83108;-64
2021/06/15 14:35:08;;;;;;;78.68;31.27;;;24.90;43.50;;;;;;6225421;27;83306;-64
2021/06/15 14:38:09;;;;;;;80.32;29.40;;;24.90;43.10;;;;;;6228961;27;83476;-65
2021/06/15 14:41:09;;;;;;;71.15;28.27;;;24.90;43.50;;;;;;6228951;27;84700;-65
2021/06/15 14:44:10;;;;;;;70.45;24.90;;;24.90;43.10;;;;;;6228597;27;83163;-64
2021/06/15 14:47:10;;;;;;;67.00;25.35;;;24.90;43.00;;;;;;6227454;27;83213;-65
2021/06/15 14:50:11;;;;;;;64.07;24.25;;;24.90;43.10;;;;;;6225431;27;83516;-65
2021/06/15 14:53:12;;;;;;;53.63;22.75;;;24.90;43.00;;;;;;6222052;27;84114;-66
2021/06/15 14:56:12;;;;;;;58.15;21.63;;;24.90;43.20;;;;;;6235089;27;83281;-66
2021/06/15 14:59:13;;;;;;;51.92;20.23;;;25.00;43.10;;;;;;6231396;27;83251;-65
2021/06/15 15:02:13;;;;;;;43.20;19.42;;;24.90;42.70;;;;;;6230384;27;83119;-65
2021/06/15 15:05:14;;;;;;;35.85;15.88;;;24.90;43.00;;;;;;6240193;27;83008;-66
2021/06/15 15:08:14;;;;;;;43.13;17.10;;;24.90;42.90;;;;;;6229834;27;83376;-66
2021/06/15 15:11:15;;;;;;;37.65;15.65;;;24.90;43.30;;;;;;6235356;27;84236;-65
2021/06/15 15:14:15;;;;;;;40.60;16.25;;;24.90;43.10;;;;;;6236059;27;84168;-65
2021/06/15 15:17:16;;;;;;;39.63;15.60;;;24.90;43.50;;;;;;6233602;27;83441;-67
2021/06/15 15:20:16;;;;;;;41.22;15.20;;;24.90;43.20;;;;;;6230891;27;85074;-66
2021/06/15 15:23:17;;;;;;;29.45;11.50;;;24.90;43.60;;;;;;6234525;27;82944;-66
2021/06/15 15:26:17;;;;;;;26.25;11.27;;;24.90;42.80;;;;;;6230663;27;83192;-64
2021/06/15 15:29:18;;;;;;;24.40;11.05;;;24.90;42.90;;;;;;6232140;27;83223;-65
2021/06/15 15:32:18;;;;;;;24.42;10.45;;;24.90;42.80;;;;;;6230474;27;83399;-65
2021/06/15 15:35:19;;;;;;;21.33;9.70;;;24.90;43.00;;;;;;6215199;27;85481;-66
2021/06/15 15:38:19;;;;;;;23.98;9.80;;;24.90;42.70;;;;;;6235548;27;83021;-66
2021/06/15 15:41:20;;;;;;;25.90;9.80;;;24.90;42.80;;;;;;6236340;27;80293;-66